createdAt,value
2023-02-28T05:00:45.486Z,-1.05
2023-02-28T05:01:43.640Z,-1.04
2023-02-28T05:02:43.603Z,-1.01
2023-02-28T05:03:43.605Z,-1.04
2023-02-28T05:04:43.686Z,-1.01
2023-02-28T05:05:43.551Z,-1.01
2023-02-28T05:06:43.645Z,-1.02
2023-02-28T05:07:43.518Z,-1.01
2023-02-28T05:08:43.565Z,-0.99
2023-02-28T05:09:43.497Z,-1.01
2023-02-28T05:10:43.481Z,-0.99
2023-02-28T05:11:43.462Z,-0.99
2023-02-28T05:12:43.501Z,-0.98
2023-02-28T05:13:50.470Z,-0.98
2023-02-28T05:14:43.444Z,-0.95
2023-02-28T05:15:43.410Z,-0.94
2023-02-28T05:16:43.422Z,-0.94
2023-02-28T05:17:43.399Z,-0.92
2023-02-28T05:18:43.527Z,-0.91
2023-02-28T05:19:43.358Z,-0.91
2023-02-28T05:20:43.382Z,-0.91
2023-02-28T05:21:43.368Z,-0.89
2023-02-28T05:22:43.462Z,-0.89
2023-02-28T05:23:43.626Z,-0.91
2023-02-28T05:24:43.382Z,-0.89
2023-02-28T05:25:43.300Z,-0.86
2023-02-28T05:26:43.310Z,-0.86
2023-02-28T05:27:43.270Z,-0.86
2023-02-28T05:28:43.274Z,-0.83
2023-02-28T05:29:43.234Z,-0.82
2023-02-28T05:30:43.301Z,-0.82
2023-02-28T05:31:43.352Z,-0.80
2023-02-28T05:32:43.235Z,-0.80
2023-02-28T05:33:43.191Z,-0.79
2023-02-28T05:34:43.207Z,-0.80
2023-02-28T05:35:43.244Z,-0.80
2023-02-28T05:36:43.181Z,-0.79
2023-02-28T05:37:43.145Z,-0.78
2023-02-28T05:38:43.155Z,-0.79
2023-02-28T05:39:43.117Z,-0.78
2023-02-28T05:40:43.173Z,-0.78
2023-02-28T05:41:43.117Z,-0.78
2023-02-28T05:42:43.104Z,-0.79
2023-02-28T05:43:43.077Z,-0.79
2023-02-28T05:44:43.072Z,-0.78
2023-02-28T05:45:43.054Z,-0.78
2023-02-28T05:46:43.108Z,-0.76
2023-02-28T05:47:43.023Z,-0.75
2023-02-28T05:48:43.073Z,-0.75
2023-02-28T05:49:42.980Z,-0.73
2023-02-28T05:50:43.045Z,-0.72
2023-02-28T05:51:42.962Z,-0.72
2023-02-28T05:52:42.978Z,-0.70
2023-02-28T05:53:42.942Z,-0.69
2023-02-28T05:54:43.086Z,-0.65
2023-02-28T05:55:42.952Z,-0.69
2023-02-28T05:56:42.973Z,-0.69
2023-02-28T05:57:42.879Z,-0.69
2023-02-28T05:58:42.900Z,-0.70
2023-02-28T05:59:42.860Z,-0.69
2023-02-28T06:00:42.920Z,-0.67
2023-02-28T06:01:42.854Z,-0.69
2023-02-28T06:02:42.850Z,-0.67
2023-02-28T06:03:42.935Z,-0.70
2023-02-28T06:04:42.814Z,-0.72
2023-02-28T06:05:42.819Z,-0.70
2023-02-28T06:06:42.796Z,-0.69
2023-02-28T06:07:42.772Z,-0.69
2023-02-28T06:08:42.767Z,-0.69
2023-02-28T06:09:42.758Z,-0.69
2023-02-28T06:10:42.815Z,-0.69
2023-02-28T06:11:42.708Z,-0.67
2023-02-28T06:12:42.714Z,-0.67
2023-02-28T06:13:42.683Z,-0.67
2023-02-28T06:14:42.704Z,-0.67
2023-02-28T06:15:42.665Z,-0.65
2023-02-28T06:16:42.888Z,-0.65
2023-02-28T06:17:42.673Z,-0.65
2023-02-28T06:18:42.665Z,-0.64
2023-02-28T06:19:42.612Z,-0.67
2023-02-28T06:20:42.625Z,-0.65
2023-02-28T06:21:42.576Z,-0.67
2023-02-28T06:22:42.651Z,-0.64
2023-02-28T06:23:42.566Z,-0.64
2023-02-28T06:24:42.572Z,-0.65
2023-02-28T06:25:42.572Z,-0.64
2023-02-28T06:26:42.544Z,-0.64
2023-02-28T06:27:42.502Z,-0.64
2023-02-28T06:28:42.513Z,-0.64
2023-02-28T06:29:42.484Z,-0.65
2023-02-28T06:30:44.054Z,-0.64
2023-02-28T06:31:42.495Z,-0.67
2023-02-28T06:32:42.473Z,-0.65
2023-02-28T06:33:42.440Z,-0.61
2023-02-28T06:34:42.430Z,-0.61
2023-02-28T06:35:42.511Z,-0.61
2023-02-28T06:36:42.424Z,-0.61
2023-02-28T06:37:42.372Z,-0.60
2023-02-28T06:38:42.379Z,-0.60
2023-02-28T06:39:42.394Z,-0.58
2023-02-28T06:40:42.413Z,-0.58
2023-02-28T06:41:53.974Z,-0.57
2023-02-28T06:42:43.357Z,-0.58
2023-02-28T06:43:42.329Z,-0.55
2023-02-28T06:44:42.307Z,-0.55
2023-02-28T06:45:42.337Z,-0.54
2023-02-28T06:46:42.291Z,-0.54
2023-02-28T06:47:42.257Z,-0.54
2023-02-28T06:48:42.265Z,-0.54
2023-02-28T06:49:42.247Z,-0.54
2023-02-28T06:50:42.235Z,-0.52
2023-02-28T06:51:42.253Z,-0.51
2023-02-28T06:52:42.215Z,-0.49
2023-02-28T06:53:42.191Z,-0.51
2023-02-28T06:54:42.189Z,-0.47
2023-02-28T06:55:42.206Z,-0.44
2023-02-28T06:56:42.176Z,-0.44
2023-02-28T06:57:42.123Z,-0.43
2023-02-28T06:58:42.148Z,-0.43
2023-02-28T06:59:42.103Z,-0.42
2023-02-28T07:00:42.169Z,-0.42
2023-02-28T07:01:42.183Z,-0.42
2023-02-28T07:02:42.124Z,-0.43
2023-02-28T07:03:42.078Z,-0.43
2023-02-28T07:04:42.192Z,-0.42
2023-02-28T07:05:42.082Z,-0.44
2023-02-28T07:06:42.046Z,-0.43
2023-02-28T07:07:42.017Z,-0.43
2023-02-28T07:08:42.004Z,-0.42
2023-02-28T07:09:41.975Z,-0.39
2023-02-28T07:10:42.054Z,-0.37
2023-02-28T07:11:41.945Z,-0.34
2023-02-28T07:12:41.956Z,-0.33
2023-02-28T07:13:41.927Z,-0.34
2023-02-28T07:14:41.926Z,-0.29
2023-02-28T07:15:44.033Z,-0.28
2023-02-28T07:16:41.954Z,-0.25
2023-02-28T07:17:41.878Z,-0.23
2023-02-28T07:18:41.903Z,-0.23
2023-02-28T07:19:41.859Z,-0.23
2023-02-28T07:20:41.854Z,-0.23
2023-02-28T07:21:41.821Z,-0.25
2023-02-28T07:22:41.880Z,-0.23
2023-02-28T07:23:41.837Z,-0.21
2023-02-28T07:24:41.813Z,-0.19
2023-02-28T07:25:41.774Z,-0.19
2023-02-28T07:26:41.774Z,-0.15
2023-02-28T07:27:42.322Z,-0.16
2023-02-28T07:28:41.837Z,-0.15
2023-02-28T07:29:41.731Z,-0.15
2023-02-28T07:30:41.738Z,-0.18
2023-02-28T07:31:41.813Z,-0.16
2023-02-28T07:32:43.859Z,-0.16
2023-02-28T07:33:41.671Z,-0.18
2023-02-28T07:34:41.754Z,-0.15
2023-02-28T07:35:41.648Z,-0.14
2023-02-28T07:36:41.680Z,-0.14
2023-02-28T07:37:41.614Z,-0.14
2023-02-28T07:38:41.633Z,-0.14
2023-02-28T07:39:41.594Z,-0.10
2023-02-28T07:40:41.670Z,-0.08
2023-02-28T07:41:41.571Z,-0.07
2023-02-28T07:42:41.596Z,-0.04
2023-02-28T07:43:41.544Z,-0.04
2023-02-28T07:44:41.705Z,-0.03
2023-02-28T07:45:41.537Z,-0.01
2023-02-28T07:46:41.656Z,0.00
2023-02-28T07:47:41.568Z,0.00
2023-02-28T07:48:41.501Z,0.00
2023-02-28T07:49:41.489Z,0.02
2023-02-28T07:50:41.533Z,0.03
2023-02-28T07:51:41.433Z,0.07
2023-02-28T07:52:41.472Z,0.11
2023-02-28T07:53:41.434Z,0.14
2023-02-28T07:54:41.451Z,0.13
2023-02-28T07:55:41.407Z,0.13
2023-02-28T07:56:41.466Z,0.13
2023-02-28T07:57:41.389Z,0.13
2023-02-28T07:58:41.394Z,0.13
2023-02-28T07:59:41.386Z,0.17
2023-02-28T08:00:41.461Z,0.18
2023-02-28T08:01:41.333Z,0.20
2023-02-28T08:02:41.335Z,0.18
2023-02-28T08:03:41.289Z,0.21
2023-02-28T08:04:41.369Z,0.24
2023-02-28T08:05:41.356Z,0.26
2023-02-28T08:06:41.302Z,0.28
2023-02-28T08:07:41.259Z,0.28
2023-02-28T08:08:41.270Z,0.29
2023-02-28T08:09:41.229Z,0.28
2023-02-28T08:10:41.250Z,0.31
2023-02-28T08:11:41.328Z,0.29
2023-02-28T08:12:41.177Z,0.32
2023-02-28T08:13:41.218Z,0.38
2023-02-28T08:14:41.163Z,0.36
2023-02-28T08:15:41.158Z,0.38
2023-02-28T08:16:41.224Z,0.39
2023-02-28T08:17:41.182Z,0.36
2023-02-28T08:18:41.125Z,0.41
2023-02-28T08:19:41.128Z,0.44
2023-02-28T08:20:41.107Z,0.42
2023-02-28T08:21:41.084Z,0.46
2023-02-28T08:22:41.077Z,0.50
2023-02-28T08:23:41.079Z,0.49
2023-02-28T08:24:41.020Z,0.51
2023-02-28T08:25:41.104Z,0.57
2023-02-28T08:26:41.001Z,0.57
2023-02-28T08:27:41.014Z,0.58
2023-02-28T08:28:40.992Z,0.58
2023-02-28T08:29:40.994Z,0.60
2023-02-28T08:30:40.951Z,0.65
2023-02-28T08:31:41.120Z,0.66
2023-02-28T08:32:41.107Z,0.65
2023-02-28T08:33:40.931Z,0.66
2023-02-28T08:34:40.925Z,0.70
2023-02-28T08:35:40.942Z,0.75
2023-02-28T08:36:40.972Z,0.75
2023-02-28T08:37:40.952Z,0.75
2023-02-28T08:38:40.858Z,0.76
2023-02-28T08:39:40.850Z,0.79
2023-02-28T08:40:40.828Z,0.87
2023-02-28T08:41:40.847Z,0.88
2023-02-28T08:42:40.817Z,0.93
2023-02-28T08:43:40.856Z,0.94
2023-02-28T08:44:40.779Z,0.97
2023-02-28T08:45:40.881Z,0.97
2023-02-28T08:46:40.749Z,0.86
2023-02-28T08:47:40.762Z,0.90
2023-02-28T08:48:40.735Z,0.87
2023-02-28T08:49:40.731Z,0.94
2023-02-28T08:50:40.695Z,0.97
2023-02-28T08:51:40.772Z,1.05
2023-02-28T08:52:40.681Z,1.06
2023-02-28T08:53:40.761Z,1.00
2023-02-28T08:54:40.637Z,1.08
2023-02-28T08:55:40.770Z,1.06
2023-02-28T08:56:40.614Z,1.02
2023-02-28T08:57:40.637Z,1.04
2023-02-28T08:58:40.598Z,1.06
2023-02-28T08:59:40.608Z,1.02
2023-02-28T09:00:41.704Z,1.11
2023-02-28T09:01:40.633Z,1.05
2023-02-28T09:02:40.545Z,1.11
2023-02-28T09:03:40.613Z,1.14
2023-02-28T09:04:40.531Z,1.22
2023-02-28T09:05:40.551Z,1.32
2023-02-28T09:06:40.494Z,1.30
2023-02-28T09:07:40.595Z,1.23
2023-02-28T09:08:40.485Z,1.15
2023-02-28T09:09:40.474Z,1.16
2023-02-28T09:10:40.452Z,1.26
2023-02-28T09:11:40.465Z,1.30
2023-02-28T09:12:40.438Z,1.36
2023-02-28T09:13:40.465Z,1.36
2023-02-28T09:14:40.403Z,1.40
2023-02-28T09:15:40.409Z,1.48
2023-02-28T09:16:40.404Z,1.45
2023-02-28T09:17:40.389Z,1.41
2023-02-28T09:18:40.347Z,1.29
2023-02-28T09:19:40.656Z,1.30
2023-02-28T09:20:40.323Z,1.33
2023-02-28T09:21:40.348Z,1.27
2023-02-28T09:22:40.314Z,1.34
2023-02-28T09:23:40.295Z,1.48
2023-02-28T09:25:40.328Z,1.55
2023-02-28T09:26:47.304Z,1.52
2023-02-28T09:27:42.432Z,1.42
2023-02-28T09:28:40.225Z,1.41
2023-02-28T09:29:40.262Z,1.45
2023-02-28T09:30:40.317Z,1.50
2023-02-28T09:31:40.231Z,1.47
2023-02-28T09:32:40.172Z,1.50
2023-02-28T09:33:40.182Z,1.55
2023-02-28T09:34:40.244Z,1.58
2023-02-28T09:35:40.246Z,1.63
2023-02-28T09:36:45.182Z,1.59
2023-02-28T09:37:41.145Z,1.62
2023-02-28T09:38:40.086Z,1.69
2023-02-28T09:39:40.101Z,1.80
2023-02-28T09:40:40.077Z,1.87
2023-02-28T09:41:40.054Z,1.83
2023-02-28T09:42:40.306Z,1.88
2023-02-28T09:43:40.052Z,1.88
2023-02-28T09:44:40.025Z,1.90
2023-02-28T09:45:40.038Z,1.93
2023-02-28T09:46:40.141Z,1.80
2023-02-28T09:47:40.002Z,1.86
2023-02-28T09:48:41.088Z,1.93
2023-02-28T09:49:39.985Z,1.91
2023-02-28T09:50:40.006Z,1.88
2023-02-28T09:51:39.932Z,1.98
2023-02-28T09:52:39.910Z,2.03
2023-02-28T09:53:40.167Z,2.03
2023-02-28T09:54:39.931Z,1.98
2023-02-28T09:55:46.495Z,1.98
2023-02-28T09:56:40.860Z,2.00
2023-02-28T09:57:39.869Z,2.12
2023-02-28T09:58:39.851Z,2.20
2023-02-28T09:59:39.850Z,2.30
2023-02-28T10:00:39.852Z,2.52
2023-02-28T10:01:39.835Z,2.60
2023-02-28T10:02:39.776Z,2.74
2023-02-28T10:03:39.788Z,2.77
2023-02-28T10:04:39.769Z,2.71
2023-02-28T10:05:39.813Z,2.63
2023-02-28T10:06:39.736Z,2.63
2023-02-28T10:07:39.759Z,2.54
2023-02-28T10:08:39.711Z,2.63
2023-02-28T10:09:39.731Z,2.74
2023-02-28T10:10:39.731Z,2.57
2023-02-28T10:11:39.706Z,2.49
2023-02-28T10:12:39.655Z,2.39
2023-02-28T10:13:39.654Z,2.39
2023-02-28T10:14:39.616Z,2.34
2023-02-28T10:15:39.736Z,2.43
2023-02-28T10:16:39.597Z,2.48
2023-02-28T10:17:49.420Z,2.48
2023-02-28T10:18:40.577Z,2.64
2023-02-28T10:19:39.586Z,2.77
2023-02-28T10:20:39.542Z,2.74
2023-02-28T10:21:39.609Z,2.81
2023-02-28T10:22:39.546Z,2.97
2023-02-28T10:23:39.526Z,3.08
2023-02-28T10:24:39.501Z,2.89
2023-02-28T10:25:39.507Z,2.92
2023-02-28T10:26:39.471Z,3.06
2023-02-28T10:27:39.532Z,3.29
2023-02-28T10:28:39.445Z,3.42
2023-02-28T10:29:39.532Z,3.60
2023-02-28T10:30:39.409Z,3.70
2023-02-28T10:31:39.417Z,3.86
2023-02-28T10:32:39.392Z,3.86
2023-02-28T10:33:39.444Z,3.90
2023-02-28T10:34:39.459Z,3.79
2023-02-28T10:35:39.386Z,3.79
2023-02-28T10:36:39.361Z,3.84
2023-02-28T10:37:39.347Z,3.91
2023-02-28T10:38:39.328Z,4.08
2023-02-28T10:39:39.372Z,3.90
2023-02-28T10:40:39.310Z,3.96
2023-02-28T10:41:39.326Z,3.98
2023-02-28T10:42:39.257Z,4.05
2023-02-28T10:43:39.271Z,3.94
2023-02-28T10:44:39.237Z,3.96
2023-02-28T10:45:39.336Z,3.94
2023-02-28T10:46:39.248Z,3.98
2023-02-28T10:47:39.216Z,4.08
2023-02-28T10:48:39.229Z,4.09
2023-02-28T10:49:39.185Z,3.97
2023-02-28T10:50:39.194Z,4.08
2023-02-28T10:51:39.208Z,4.27
2023-02-28T10:52:39.141Z,4.26
2023-02-28T10:53:59.309Z,4.37
2023-02-28T10:54:40.115Z,4.54
2023-02-28T10:55:39.165Z,4.65
2023-02-28T10:56:39.084Z,4.63
2023-02-28T10:57:39.082Z,4.47
2023-02-28T10:58:39.041Z,4.14
2023-02-28T10:59:39.058Z,4.32
2023-02-28T11:00:39.069Z,4.41
2023-02-28T11:01:39.062Z,4.33
2023-02-28T11:02:39.007Z,4.33
2023-02-28T11:03:38.989Z,4.45
2023-02-28T11:04:39.180Z,4.51
2023-02-28T11:05:39.002Z,4.65
2023-02-28T11:06:38.937Z,4.55
2023-02-28T11:07:45.725Z,4.29
2023-02-28T11:08:39.928Z,3.83
2023-02-28T11:09:38.912Z,3.75
2023-02-28T11:10:38.933Z,3.55
2023-02-28T11:11:38.894Z,3.45
2023-02-28T11:12:46.976Z,3.35
2023-02-28T11:14:49.290Z,3.69
2023-02-28T11:15:49.390Z,3.66
2023-02-28T11:16:49.240Z,3.70
2023-02-28T11:17:49.281Z,3.51
2023-02-28T11:18:49.210Z,3.45
2023-02-28T11:19:49.218Z,3.35
2023-02-28T11:20:49.191Z,3.33
2023-02-28T11:21:49.254Z,3.40
2023-02-28T11:22:49.156Z,3.50
2023-02-28T11:23:49.182Z,3.72
2023-02-28T11:24:49.148Z,3.97
2023-02-28T11:25:49.146Z,4.16
2023-02-28T11:26:49.109Z,4.29
2023-02-28T11:27:49.372Z,4.36
2023-02-28T11:28:49.085Z,4.29
2023-02-28T11:29:49.108Z,4.27
2023-02-28T11:30:49.057Z,4.12
2023-02-28T11:31:49.166Z,4.12
2023-02-28T11:32:49.045Z,4.06
2023-02-28T11:33:49.083Z,4.12
2023-02-28T11:34:49.003Z,4.16
2023-02-28T11:35:49.148Z,4.44
2023-02-28T11:36:48.983Z,4.58
2023-02-28T11:37:48.981Z,4.78
2023-02-28T11:38:48.953Z,4.91
2023-02-28T11:39:48.990Z,5.13
2023-02-28T11:40:48.928Z,5.31
2023-02-28T11:41:48.982Z,5.36
2023-02-28T11:42:48.902Z,5.36
2023-02-28T11:43:48.920Z,5.48
2023-02-28T11:44:48.897Z,5.53
2023-02-28T11:45:48.883Z,5.63
2023-02-28T11:46:50.880Z,5.85
2023-02-28T11:47:48.917Z,5.63
2023-02-28T11:48:48.833Z,5.33
2023-02-28T11:49:48.850Z,5.31
2023-02-28T11:50:48.844Z,5.30
2023-02-28T11:51:48.796Z,5.06
2023-02-28T11:52:48.802Z,4.96
2023-02-28T11:53:49.219Z,4.88
2023-02-28T11:54:48.788Z,4.86
2023-02-28T11:55:48.741Z,4.78
2023-02-28T11:56:48.736Z,4.66
2023-02-28T11:57:48.718Z,4.72
2023-02-28T11:58:48.708Z,4.69
2023-02-28T11:59:48.814Z,4.60
2023-02-28T12:00:48.707Z,4.51
2023-02-28T12:01:48.661Z,4.48
2023-02-28T12:02:48.751Z,4.63
2023-02-28T12:03:48.656Z,4.75
2023-02-28T12:04:48.663Z,4.91
2023-02-28T12:05:48.725Z,5.09
2023-02-28T12:06:48.642Z,5.06
2023-02-28T12:07:48.603Z,4.88
2023-02-28T12:08:48.607Z,4.63
2023-02-28T12:09:48.568Z,4.51
2023-02-28T12:10:48.566Z,4.47
2023-02-28T12:11:48.580Z,4.40
2023-02-28T12:12:48.550Z,4.47
2023-02-28T12:13:48.520Z,4.47
2023-02-28T12:14:48.514Z,4.36
2023-02-28T12:15:48.490Z,4.36
2023-02-28T12:16:48.536Z,4.26
2023-02-28T12:17:48.463Z,4.32
2023-02-28T12:18:48.472Z,4.32
2023-02-28T12:19:48.434Z,4.29
2023-02-28T12:20:48.503Z,4.36
2023-02-28T12:21:48.425Z,4.37
2023-02-28T12:22:48.415Z,4.52
2023-02-28T12:23:48.380Z,4.59
2023-02-28T12:24:48.401Z,4.60
2023-02-28T12:25:48.363Z,4.60
2023-02-28T12:26:48.550Z,4.67
2023-02-28T12:27:48.328Z,4.77
2023-02-28T12:28:48.360Z,4.82
2023-02-28T12:29:48.349Z,4.96
2023-02-28T12:30:48.311Z,5.00
2023-02-28T12:31:48.468Z,4.97
2023-02-28T12:32:48.400Z,5.04
2023-02-28T12:33:48.246Z,5.07
2023-02-28T12:34:48.262Z,5.00
2023-02-28T12:35:48.299Z,4.97
2023-02-28T12:36:48.235Z,4.92
2023-02-28T12:37:48.263Z,4.84
2023-02-28T12:38:48.212Z,4.94
2023-02-28T12:39:50.686Z,5.04
2023-02-28T12:40:49.292Z,5.02
2023-02-28T12:41:48.142Z,5.02
2023-02-28T12:42:48.165Z,5.04
2023-02-28T12:43:48.119Z,4.92
2023-02-28T12:44:48.149Z,4.86
2023-02-28T12:45:48.189Z,4.78
2023-02-28T12:46:48.182Z,4.86
2023-02-28T12:47:48.063Z,4.97
2023-02-28T12:48:48.078Z,5.06
2023-02-28T12:49:48.043Z,5.17
2023-02-28T12:50:48.119Z,5.25
2023-02-28T12:51:48.042Z,5.18
2023-02-28T12:52:48.106Z,5.22
2023-02-28T12:53:47.988Z,5.17
2023-02-28T12:54:48.027Z,5.12
2023-02-28T12:55:47.967Z,5.30
2023-02-28T12:56:48.152Z,5.49
2023-02-28T12:57:47.937Z,5.64
2023-02-28T12:58:47.946Z,5.71
2023-02-28T12:59:47.932Z,5.60
2023-02-28T13:00:47.975Z,5.65
2023-02-28T13:01:47.896Z,5.60
2023-02-28T13:02:47.944Z,5.49
2023-02-28T13:03:47.866Z,5.61
2023-02-28T13:04:47.874Z,5.64
2023-02-28T13:05:47.853Z,5.67
2023-02-28T13:06:47.862Z,5.72
2023-02-28T13:07:47.855Z,5.67
2023-02-28T13:08:47.810Z,5.74
2023-02-28T13:09:47.788Z,5.79
2023-02-28T13:10:47.799Z,5.75
2023-02-28T13:11:47.770Z,5.74
2023-02-28T13:12:47.809Z,5.78
2023-02-28T13:13:47.739Z,5.79
2023-02-28T13:14:47.751Z,5.76
2023-02-28T13:15:47.701Z,5.86
2023-02-28T13:16:47.762Z,5.94
2023-02-28T13:17:47.765Z,6.01
2023-02-28T13:18:47.703Z,6.11
2023-02-28T13:19:47.659Z,6.01
2023-02-28T13:20:47.756Z,5.97
2023-02-28T13:21:48.915Z,6.09
2023-02-28T13:22:47.646Z,6.15
2023-02-28T13:23:47.608Z,6.09
2023-02-28T13:24:47.620Z,6.17
2023-02-28T13:25:47.583Z,6.21
2023-02-28T13:26:47.630Z,6.28
2023-02-28T13:27:47.601Z,6.33
2023-02-28T13:28:47.554Z,6.44
2023-02-28T13:29:47.525Z,6.51
2023-02-28T13:30:47.571Z,6.64
2023-02-28T13:31:47.552Z,6.73
2023-02-28T13:32:47.547Z,6.79
2023-02-28T13:33:49.019Z,6.81
2023-02-28T13:34:47.496Z,6.84
2023-02-28T13:35:47.489Z,6.85
2023-02-28T13:36:47.476Z,6.87
2023-02-28T13:37:47.482Z,6.91
2023-02-28T13:38:47.423Z,6.99
2023-02-28T13:39:47.395Z,7.06
2023-02-28T13:40:47.403Z,6.85
2023-02-28T13:41:47.375Z,6.84
2023-02-28T13:42:47.374Z,6.89
2023-02-28T13:43:47.390Z,6.97
2023-02-28T13:44:47.343Z,6.98
2023-02-28T13:45:47.913Z,6.84
2023-02-28T13:46:47.345Z,6.62
2023-02-28T13:47:47.303Z,6.55
2023-02-28T13:48:47.324Z,6.61
2023-02-28T13:49:47.337Z,6.70
2023-02-28T13:50:47.306Z,6.76
2023-02-28T13:51:47.690Z,6.84
2023-02-28T13:52:48.653Z,6.84
2023-02-28T13:53:49.478Z,6.89
2023-02-28T13:54:47.225Z,6.94
2023-02-28T13:55:47.187Z,6.92
2023-02-28T13:56:47.306Z,6.98
2023-02-28T13:57:47.179Z,7.05
2023-02-28T13:58:47.225Z,6.94
2023-02-28T13:59:47.132Z,6.89
2023-02-28T14:00:47.137Z,6.94
2023-02-28T14:01:47.130Z,6.80
2023-02-28T14:02:47.123Z,6.73
2023-02-28T14:03:47.143Z,6.77
2023-02-28T14:04:47.205Z,6.80
2023-02-28T14:05:47.129Z,6.89
2023-02-28T14:06:47.077Z,6.97
2023-02-28T14:07:47.037Z,7.02
2023-02-28T14:08:47.070Z,7.03
2023-02-28T14:09:46.998Z,7.07
2023-02-28T14:10:47.017Z,7.12
2023-02-28T14:11:47.016Z,7.20
2023-02-28T14:12:46.975Z,7.20
2023-02-28T14:13:46.985Z,6.95
2023-02-28T14:14:46.958Z,6.98
2023-02-28T14:15:47.155Z,7.02
2023-02-28T14:16:46.937Z,6.98
2023-02-28T14:17:46.904Z,6.89
2023-02-28T14:18:47.154Z,6.91
2023-02-28T14:19:46.877Z,6.87
2023-02-28T14:20:46.897Z,6.92
2023-02-28T14:21:46.836Z,7.05
2023-02-28T14:22:46.869Z,7.06
2023-02-28T14:23:47.085Z,7.10
2023-02-28T14:24:47.053Z,6.84
2023-02-28T14:25:46.790Z,6.71
2023-02-28T14:26:46.800Z,6.59
2023-02-28T14:27:46.763Z,6.64
2023-02-28T14:28:46.786Z,6.71
2023-02-28T14:29:46.740Z,6.85
2023-02-28T14:30:46.813Z,6.88
2023-02-28T14:31:46.833Z,6.94
2023-02-28T14:32:46.746Z,6.89
2023-02-28T14:33:46.691Z,6.84
2023-02-28T14:34:46.690Z,6.81
2023-02-28T14:35:47.056Z,6.81
2023-02-28T14:36:46.689Z,6.77
2023-02-28T14:37:47.045Z,6.71
2023-02-28T14:38:46.630Z,6.74
2023-02-28T14:39:46.617Z,6.77
2023-02-28T14:40:46.607Z,6.58
2023-02-28T14:41:51.831Z,6.56
2023-02-28T14:42:46.587Z,6.54
2023-02-28T14:43:46.548Z,6.58
2023-02-28T14:44:46.594Z,6.58
2023-02-28T14:45:46.519Z,6.67
2023-02-28T14:46:46.578Z,6.71
2023-02-28T14:47:46.562Z,6.73
2023-02-28T14:48:46.497Z,6.71
2023-02-28T14:49:46.486Z,6.76
2023-02-28T14:50:46.484Z,6.81
2023-02-28T14:51:46.457Z,6.69
2023-02-28T14:52:46.471Z,6.64
2023-02-28T14:53:46.456Z,6.76
2023-02-28T14:54:46.492Z,6.74
2023-02-28T14:55:46.446Z,6.76
2023-02-28T14:56:46.423Z,6.69
2023-02-28T14:57:46.379Z,6.76
2023-02-28T14:58:46.376Z,6.73
2023-02-28T14:59:46.353Z,6.59
2023-02-28T15:00:46.560Z,6.61
2023-02-28T15:01:46.331Z,6.64
2023-02-28T15:02:46.325Z,6.66
2023-02-28T15:03:46.293Z,6.74
2023-02-28T15:04:46.329Z,6.74
2023-02-28T15:05:46.264Z,6.69
2023-02-28T15:06:46.332Z,6.67
2023-02-28T15:07:46.253Z,6.61
2023-02-28T15:08:46.249Z,6.61
2023-02-28T15:09:46.206Z,6.59
2023-02-28T15:10:46.287Z,6.58
2023-02-28T15:11:46.213Z,6.64
2023-02-28T15:12:46.189Z,6.70
2023-02-28T15:13:46.174Z,6.62
2023-02-28T15:14:46.172Z,6.69
2023-02-28T15:16:00.935Z,6.76
2023-02-28T15:16:47.255Z,6.71
2023-02-28T15:17:46.101Z,6.59
2023-02-28T15:18:46.130Z,6.69
2023-02-28T15:19:46.124Z,6.59
2023-02-28T15:20:46.085Z,6.41
2023-02-28T15:21:46.074Z,6.40
2023-02-28T15:22:46.124Z,6.46
2023-02-28T15:23:46.066Z,6.59
2023-02-28T15:24:46.043Z,6.69
2023-02-28T15:25:46.113Z,6.69
2023-02-28T15:26:46.012Z,6.70
2023-02-28T15:27:45.980Z,6.70
2023-02-28T15:28:45.994Z,6.66
2023-02-28T15:29:45.943Z,6.59
2023-02-28T15:30:45.961Z,6.51
2023-02-28T15:31:55.827Z,6.54
2023-02-28T15:32:47.091Z,6.38
2023-02-28T15:33:45.902Z,6.31
2023-02-28T15:34:45.928Z,6.31
2023-02-28T15:35:45.903Z,6.27
2023-02-28T15:36:45.878Z,6.27
2023-02-28T15:37:46.218Z,6.27
2023-02-28T15:38:45.888Z,6.27
2023-02-28T15:39:45.814Z,6.30
2023-02-28T15:40:45.824Z,6.37
2023-02-28T15:41:45.827Z,6.40
2023-02-28T15:42:45.814Z,6.36
2023-02-28T15:43:45.815Z,6.25
2023-02-28T15:44:45.775Z,6.25
2023-02-28T15:45:45.805Z,6.27
2023-02-28T15:46:45.736Z,6.25
2023-02-28T15:47:45.716Z,6.21
2023-02-28T15:48:45.734Z,6.19
2023-02-28T15:49:45.787Z,6.12
2023-02-28T15:50:45.696Z,6.15
2023-02-28T15:51:45.676Z,6.04
2023-02-28T15:52:45.664Z,5.91
2023-02-28T15:53:45.645Z,5.93
2023-02-28T15:54:45.672Z,5.89
2023-02-28T15:55:45.775Z,5.89
2023-02-28T15:56:45.616Z,5.93
2023-02-28T15:57:45.584Z,5.93
2023-02-28T15:58:45.603Z,6.00
2023-02-28T15:59:45.565Z,6.08
2023-02-28T16:00:45.597Z,6.11
2023-02-28T16:01:45.618Z,6.14
2023-02-28T16:02:45.775Z,6.36
2023-02-28T16:03:45.528Z,6.33
2023-02-28T16:04:45.528Z,6.40
2023-02-28T16:05:45.511Z,6.51
2023-02-28T16:06:45.505Z,6.46
2023-02-28T16:07:45.533Z,6.41
2023-02-28T16:08:45.445Z,6.48
2023-02-28T16:09:45.451Z,6.52
2023-02-28T16:10:45.432Z,6.66
2023-02-28T16:11:45.439Z,6.59
2023-02-28T16:12:45.396Z,6.48
2023-02-28T16:13:45.502Z,6.38
2023-02-28T16:14:45.371Z,6.22
2023-02-28T16:15:45.404Z,5.96
2023-02-28T16:16:45.387Z,5.75
2023-02-28T16:17:45.385Z,5.58
2023-02-28T16:18:45.314Z,5.53
2023-02-28T16:19:45.400Z,5.43
2023-02-28T16:20:45.290Z,5.33
2023-02-28T16:21:45.294Z,5.25
2023-02-28T16:22:45.289Z,5.22
2023-02-28T16:23:45.284Z,5.12
2023-02-28T16:24:45.242Z,5.09
2023-02-28T16:25:45.303Z,5.04
2023-02-28T16:26:45.217Z,4.97
2023-02-28T16:27:45.264Z,4.96
2023-02-28T16:28:45.212Z,4.91
2023-02-28T16:29:45.219Z,4.91
2023-02-28T16:30:45.233Z,4.84
2023-02-28T16:31:45.166Z,4.80
2023-02-28T16:32:45.148Z,4.73
2023-02-28T16:33:45.148Z,4.69
2023-02-28T16:34:45.130Z,4.66
2023-02-28T16:35:45.193Z,4.65
2023-02-28T16:36:45.095Z,4.60
2023-02-28T16:37:45.105Z,4.55
2023-02-28T16:38:45.054Z,4.51
2023-02-28T16:39:45.082Z,4.50
2023-02-28T16:40:45.041Z,4.48
2023-02-28T16:41:45.163Z,4.42
2023-02-28T16:42:45.023Z,4.36
2023-02-28T16:43:45.010Z,4.36
2023-02-28T16:44:44.985Z,4.33
2023-02-28T16:45:45.002Z,4.33
2023-02-28T16:46:44.966Z,4.32
2023-02-28T16:47:45.023Z,4.29
2023-02-28T16:48:44.945Z,4.23
2023-02-28T16:49:44.932Z,4.20
2023-02-28T16:50:45.192Z,4.14
2023-02-28T16:51:44.935Z,4.12
2023-02-28T16:52:44.896Z,4.11
2023-02-28T16:53:44.889Z,4.09
2023-02-28T16:54:44.868Z,4.06
2023-02-28T16:55:44.871Z,4.00
2023-02-28T16:56:44.903Z,3.94
2023-02-28T16:57:44.839Z,3.90
2023-02-28T16:58:44.800Z,3.86
2023-02-28T16:59:44.817Z,3.80
2023-02-28T17:00:44.807Z,3.75
2023-02-28T17:01:44.811Z,3.73
2023-02-28T17:02:44.959Z,3.69
2023-02-28T17:03:44.806Z,3.65
2023-02-28T17:04:44.728Z,3.62
2023-02-28T17:05:44.754Z,3.58
2023-02-28T17:06:44.726Z,3.51
2023-02-28T17:07:44.705Z,3.50
2023-02-28T17:08:44.720Z,3.48
2023-02-28T17:09:45.703Z,3.47
2023-02-28T17:10:44.660Z,3.43
2023-02-28T17:11:44.645Z,3.42
2023-02-28T17:12:44.693Z,3.42
2023-02-28T17:13:51.696Z,3.39
2023-02-28T17:14:44.714Z,3.36
2023-02-28T17:15:44.750Z,3.32
2023-02-28T17:16:45.400Z,3.29
2023-02-28T17:17:44.592Z,3.29
2023-02-28T17:18:44.549Z,3.29
2023-02-28T17:19:44.572Z,3.28
2023-02-28T17:20:44.609Z,3.21
2023-02-28T17:21:44.552Z,3.17
2023-02-28T17:22:44.518Z,3.13
2023-02-28T17:23:44.499Z,3.08
2023-02-28T17:24:44.476Z,3.00
2023-02-28T17:25:44.470Z,2.92
2023-02-28T17:26:44.503Z,2.85
2023-02-28T17:27:44.452Z,2.79
2023-02-28T17:28:44.416Z,2.78
2023-02-28T17:29:44.478Z,2.77
2023-02-28T17:30:45.170Z,2.74
2023-02-28T17:31:44.463Z,2.72
2023-02-28T17:32:44.457Z,2.71
2023-02-28T17:33:44.369Z,2.72
2023-02-28T17:34:44.361Z,2.71
2023-02-28T17:35:44.483Z,2.69
2023-02-28T17:36:44.322Z,2.67
2023-02-28T17:37:44.403Z,2.59
2023-02-28T17:38:44.301Z,2.53
2023-02-28T17:39:44.307Z,2.46
2023-02-28T17:40:44.261Z,2.43
2023-02-28T17:41:44.344Z,2.42
2023-02-28T17:42:44.310Z,2.39
2023-02-28T17:43:44.310Z,2.31
2023-02-28T17:44:44.251Z,2.31
2023-02-28T17:45:44.267Z,2.35
2023-02-28T17:46:44.258Z,2.34
2023-02-28T17:47:44.259Z,2.34
2023-02-28T17:48:44.203Z,2.28
2023-02-28T17:49:44.179Z,2.25
2023-02-28T17:50:44.165Z,2.20
2023-02-28T17:51:44.144Z,2.12
2023-02-28T17:52:44.128Z,2.06
2023-02-28T17:53:44.371Z,2.00
2023-02-28T17:54:44.085Z,1.91
2023-02-28T17:55:44.117Z,1.83
2023-02-28T17:56:44.060Z,1.79
2023-02-28T17:57:44.071Z,1.80
2023-02-28T17:58:44.061Z,1.80
2023-02-28T17:59:44.102Z,1.84
2023-02-28T18:00:44.057Z,1.84
2023-02-28T18:01:44.121Z,1.83
2023-02-28T18:02:44.038Z,1.77
2023-02-28T18:03:43.992Z,1.76
2023-02-28T18:04:43.970Z,1.73
2023-02-28T18:05:44.055Z,1.72
2023-02-28T18:06:43.935Z,1.70
2023-02-28T18:07:43.960Z,1.68
2023-02-28T18:08:43.906Z,1.60
2023-02-28T18:09:43.910Z,1.58
2023-02-28T18:10:43.897Z,1.50
2023-02-28T18:11:43.964Z,1.50
2023-02-28T18:12:44.082Z,1.50
2023-02-28T18:13:43.868Z,1.47
2023-02-28T18:14:43.839Z,1.44